Ballina, New South Wales

9:56 AM AEDT on April 02, 2015 (GMT +1100)
East Ballina Angels beach | | Change Station
CLOSE
Current Station
Personal Weather Station
Location: East Ballina, NEW SOUTH WALES
Elevation: 39 ft
Nearby Weather Stations

Elev 39 ft 28.85 °S, 153.59 °E | Updated 20 seconds ago

Mostly Cloudy
Mostly Cloudy
72.0 °F
Feels Like 72.0 °F
N
0.9
Wind Variable Wind from West
Gusts 2.5 mph

Today
High -- | Low -- °F
--% Chance of Precip.
Yesterday
High -- | Low -- °F
Precip. -- in
6:56 AM 6:42 PM
Waxing Gibbous, 94% visible
Pressure 30.12 in
Visibility 6.2 miles
Clouds Scattered Clouds 2300 ft
Scattered Clouds 3200 ft
Mostly Cloudy 4500 ft
Dew Point 71 °F
Humidity 97%
Rainfall 0.00 in
Snow Depth Not available.
UV 1.0 out of 12
Pollen Not available.
Air Quality Not available.
Flu Activity Not available.
SPECI YBCG 012235Z AUTO 16006KT 9999 // SCT023 SCT032 BKN045 22/21 Q1020

More Conditions Fewer Conditions

Pressure 30.12 in
Visibility 6.2 miles
Clouds Scattered Clouds 2300 ft
Scattered Clouds 3200 ft
Mostly Cloudy 4500 ft
Dew Point 71 °F
Humidity 97%
Rainfall 0.00 in
Snow Depth Not available.
UV 1.0 out of 12
Pollen Not available.
Air Quality Not available.
Flu Activity Not available.
SPECI YBCG 012235Z AUTO 16006KT 9999 // SCT023 SCT032 BKN045 22/21 Q1020

More Conditions Fewer Conditions

10-Day Weather Forecast

Almanac

Astronomy

Apr. 02, 2015 Rise Set
Actual Time
Civil Twilight
Nautical Twilight
Astronomical Twilight
Moon
Length of Visible Light
Length of Day
Tomorrow will be .
, % of the Moon is Illuminated

Today's Extremes

Country Highs Country Lows

Community

WunderPhotos

Upload Photos

1,810,096 photos uploaded!

WunderBlogs® & News

Nearby

Air Quality

  Air Quality AQ Index Pollutant
Not available.

Snow Depth

Station Depth Elevation

Earthquake Activity

City Distance Mag. Time & Date
Minimum magnitude displayed is 2.5.

Coastal Water Temperatures

Place Temperature

Stations

Nearby Weather Stations

Station Location Temp. Windchill Dew Point Humidity Wind Precip. Elev Updated Type